createdAt,value
2022-11-01T00:02:00.425Z,1.85
2022-11-01T00:04:27.509Z,1.50
2022-11-01T00:06:55.023Z,1.60
2022-11-01T00:09:22.116Z,1.40
2022-11-01T00:11:49.167Z,1.30
2022-11-01T00:14:18.492Z,1.38
2022-11-01T00:16:45.834Z,1.38
2022-11-01T00:19:14.301Z,1.15
2022-11-01T00:21:41.209Z,1.33
2022-11-01T00:24:08.275Z,1.30
2022-11-01T00:26:35.296Z,1.10
2022-11-01T00:29:02.441Z,1.00
2022-11-01T00:31:29.737Z,1.10
2022-11-01T00:33:56.920Z,1.00
2022-11-01T00:36:25.141Z,1.40
2022-11-01T00:38:52.933Z,1.20
2022-11-01T00:41:20.984Z,0.93
2022-11-01T00:43:48.408Z,1.10
2022-11-01T00:46:15.981Z,1.23
2022-11-01T00:48:42.969Z,1.13
2022-11-01T00:51:09.874Z,1.00
2022-11-01T00:53:37.076Z,1.20
2022-11-01T00:56:06.093Z,0.82
2022-11-01T00:58:33.521Z,1.00
2022-11-01T01:01:00.597Z,0.88
2022-11-01T01:03:27.580Z,1.17
2022-11-01T01:05:56.149Z,0.98
2022-11-01T01:08:23.585Z,0.93
2022-11-01T01:10:51.109Z,0.90
2022-11-01T01:13:18.319Z,1.38
2022-11-01T01:15:45.665Z,1.00
2022-11-01T01:18:13.013Z,1.73
2022-11-01T01:20:40.174Z,1.02
2022-11-01T01:23:07.155Z,0.90
2022-11-01T01:25:34.380Z,1.25
2022-11-01T01:28:01.750Z,1.15
2022-11-01T01:30:28.889Z,1.10
2022-11-01T01:32:55.832Z,1.35
2022-11-01T01:35:22.741Z,1.50
2022-11-01T01:37:49.653Z,1.10
2022-11-01T01:40:16.598Z,1.42
2022-11-01T01:42:43.982Z,1.30
2022-11-01T01:45:29.542Z,1.15
2022-11-01T01:48:19.856Z,1.52
2022-11-01T01:51:02.036Z,1.10
2022-11-01T01:53:33.337Z,1.58
2022-11-01T01:56:04.515Z,1.20
2022-11-01T01:58:39.590Z,1.23
2022-11-01T02:01:06.837Z,1.70
2022-11-01T02:03:35.672Z,1.50
2022-11-01T02:06:12.377Z,1.25
2022-11-01T02:08:43.038Z,1.80
2022-11-01T02:11:11.239Z,1.20
2022-11-01T02:13:38.637Z,1.48
2022-11-01T02:16:39.237Z,1.25
2022-11-01T02:19:43.597Z,1.70
2022-11-01T02:25:26.543Z,1.13
2022-11-01T02:28:08.197Z,1.30
2022-11-01T02:31:00.654Z,1.52
2022-11-01T02:33:39.317Z,1.60
2022-11-01T02:36:18.371Z,1.40
2022-11-01T02:38:55.078Z,1.13
2022-11-01T02:41:29.430Z,1.63
2022-11-01T02:44:12.277Z,1.50
2022-11-01T02:47:02.258Z,1.58
2022-11-01T02:49:31.058Z,1.27
2022-11-01T02:51:59.783Z,1.17
2022-11-01T02:54:40.737Z,1.42
2022-11-01T02:57:16.921Z,1.33
2022-11-01T02:59:46.511Z,1.65
2022-11-01T03:02:39.703Z,1.25
2022-11-01T03:05:09.249Z,1.40
2022-11-01T03:07:36.245Z,1.60
2022-11-01T03:10:03.452Z,2.13
2022-11-01T03:12:35.043Z,1.55
2022-11-01T03:15:20.873Z,1.55
2022-11-01T03:17:54.230Z,1.50
2022-11-01T03:20:47.889Z,1.90
2022-11-01T03:23:17.942Z,1.60
2022-11-01T03:25:55.953Z,1.45
2022-11-01T03:28:31.203Z,1.95
2022-11-01T03:31:05.511Z,1.63
2022-11-01T03:33:37.276Z,1.95
2022-11-01T03:36:13.510Z,1.95
2022-11-01T03:38:49.214Z,1.77
2022-11-01T03:41:19.089Z,1.98
2022-11-01T03:43:47.815Z,2.05
2022-11-01T03:46:16.050Z,1.80
2022-11-01T03:48:43.012Z,2.00
2022-11-01T03:51:10.113Z,2.13
2022-11-01T03:53:37.115Z,2.10
2022-11-01T03:56:04.254Z,2.00
2022-11-01T03:58:46.678Z,2.05
2022-11-01T04:01:16.910Z,1.90
2022-11-01T04:03:44.906Z,2.17
2022-11-01T04:06:11.868Z,2.22
2022-11-01T04:08:38.823Z,1.92
2022-11-01T04:11:05.800Z,1.60
2022-11-01T04:13:32.762Z,2.03
2022-11-01T04:16:18.559Z,2.28
2022-11-01T04:19:04.017Z,2.40
2022-11-01T04:21:32.303Z,2.78
2022-11-01T04:23:59.401Z,2.15
2022-11-01T04:26:26.456Z,2.38
2022-11-01T04:28:59.456Z,1.90
2022-11-01T04:31:28.993Z,2.27
2022-11-01T04:33:57.113Z,2.28
2022-11-01T04:36:24.575Z,2.53
2022-11-01T04:38:55.558Z,2.80
2022-11-01T04:41:26.894Z,2.60
2022-11-01T04:43:55.584Z,2.42
2022-11-01T04:46:23.242Z,2.05
2022-11-01T04:48:50.473Z,2.75
2022-11-01T04:51:17.746Z,2.20
2022-11-01T04:53:44.777Z,2.13
2022-11-01T04:56:13.744Z,2.40
2022-11-01T04:58:44.935Z,2.63
2022-11-01T05:01:14.562Z,2.17
2022-11-01T05:03:43.041Z,2.65
2022-11-01T05:06:10.449Z,2.72
2022-11-01T05:08:37.330Z,1.80
2022-11-01T05:11:04.294Z,2.20
2022-11-01T05:13:31.233Z,2.83
2022-11-01T05:18:45.111Z,2.60
2022-11-01T05:21:12.446Z,2.40
2022-11-01T05:23:39.472Z,2.65
2022-11-01T05:26:06.580Z,2.78
2022-11-01T05:28:33.671Z,3.38
2022-11-01T05:31:00.670Z,2.55
2022-11-01T05:33:27.620Z,2.78
2022-11-01T05:35:54.650Z,2.67
2022-11-01T05:38:21.688Z,2.90
2022-11-01T05:40:48.918Z,2.70
2022-11-01T05:43:15.901Z,3.08
2022-11-01T05:45:42.774Z,2.70
2022-11-01T05:48:09.723Z,2.95
2022-11-01T05:50:36.605Z,2.72
2022-11-01T05:53:07.533Z,3.28
2022-11-01T05:55:35.061Z,2.42
2022-11-01T05:58:02.186Z,3.05
2022-11-01T06:00:29.222Z,2.90
2022-11-01T06:02:58.715Z,2.17
2022-11-01T06:05:26.633Z,2.63
2022-11-01T06:07:53.732Z,2.92
2022-11-01T06:10:20.652Z,2.85
2022-11-01T06:12:47.595Z,2.42
2022-11-01T06:15:14.581Z,3.00
2022-11-01T06:17:41.462Z,2.85
2022-11-01T06:20:09.026Z,2.67
2022-11-01T06:22:36.786Z,2.60
2022-11-01T06:25:05.247Z,3.15
2022-11-01T06:27:32.773Z,2.97
2022-11-01T06:29:59.731Z,2.88
2022-11-01T06:32:27.337Z,3.00
2022-11-01T06:34:54.475Z,2.65
2022-11-01T06:37:21.409Z,3.03
2022-11-01T06:39:48.354Z,3.13
2022-11-01T06:42:15.239Z,3.10
2022-11-01T06:44:42.178Z,2.70
2022-11-01T06:47:09.139Z,2.75
2022-11-01T06:49:36.053Z,2.72
2022-11-01T06:52:03.423Z,3.05
2022-11-01T06:54:30.649Z,2.55
2022-11-01T06:56:57.717Z,3.60
2022-11-01T06:59:25.067Z,2.97
2022-11-01T07:01:54.898Z,2.40
2022-11-01T07:04:22.079Z,2.83
2022-11-01T07:06:49.380Z,3.00
2022-11-01T07:09:16.320Z,2.85
2022-11-01T07:11:43.180Z,2.85
2022-11-01T07:14:10.378Z,3.47
2022-11-01T07:16:38.992Z,2.92
2022-11-01T07:19:06.083Z,2.83
2022-11-01T07:21:33.049Z,3.50
2022-11-01T07:24:00.262Z,4.13
2022-11-01T07:26:27.153Z,3.35
2022-11-01T07:28:54.073Z,3.10
2022-11-01T07:31:21.160Z,2.92
2022-11-01T07:33:48.055Z,2.88
2022-11-01T07:36:14.916Z,2.95
2022-11-01T07:38:41.954Z,2.85
2022-11-01T07:41:09.239Z,3.05
2022-11-01T07:43:36.738Z,3.22
2022-11-01T07:46:05.780Z,2.78
2022-11-01T07:48:33.607Z,2.83
2022-11-01T07:51:02.682Z,2.72
2022-11-01T07:53:30.197Z,2.40
2022-11-01T07:55:57.076Z,2.67
2022-11-01T07:58:23.985Z,2.75
2022-11-01T08:00:50.983Z,2.08
2022-11-01T08:03:19.453Z,3.15
2022-11-01T08:05:48.232Z,3.40
2022-11-01T08:08:16.175Z,3.10
2022-11-01T08:10:43.069Z,2.50
2022-11-01T08:13:17.956Z,3.00
2022-11-01T08:15:46.013Z,3.20
2022-11-01T08:18:13.022Z,2.72
2022-11-01T08:20:41.204Z,2.63
2022-11-01T08:23:08.560Z,2.50
2022-11-01T08:25:35.578Z,3.33
2022-11-01T08:28:04.486Z,2.90
2022-11-01T08:30:31.919Z,3.13
2022-11-01T08:33:00.753Z,3.40
2022-11-01T08:35:28.876Z,2.85
2022-11-01T08:37:56.399Z,3.70
2022-11-01T08:40:23.448Z,3.50
2022-11-01T08:42:50.536Z,2.58
2022-11-01T08:45:18.010Z,3.55
2022-11-01T08:47:45.309Z,2.83
2022-11-01T08:50:15.246Z,3.65
2022-11-01T08:52:42.550Z,2.95
2022-11-01T08:55:11.374Z,2.83
2022-11-01T08:57:38.378Z,3.35
2022-11-01T09:00:13.795Z,3.08
2022-11-01T09:02:40.767Z,2.95
2022-11-01T09:05:08.674Z,3.25
2022-11-01T09:07:36.776Z,2.85
2022-11-01T09:10:04.180Z,3.42
2022-11-01T09:12:31.541Z,2.53
2022-11-01T09:14:58.538Z,3.13
2022-11-01T09:17:25.606Z,2.92
2022-11-01T09:19:52.476Z,3.30
2022-11-01T09:22:19.456Z,3.13
2022-11-01T09:24:46.536Z,3.33
2022-11-01T09:27:13.550Z,3.25
2022-11-01T09:29:40.700Z,2.90
2022-11-01T09:32:07.867Z,3.03
2022-11-01T09:34:35.169Z,3.30
2022-11-01T09:37:02.219Z,3.35
2022-11-01T09:39:29.104Z,2.72
2022-11-01T09:42:02.770Z,3.20
2022-11-01T09:44:37.540Z,3.03
2022-11-01T09:47:12.237Z,3.25
2022-11-01T09:49:41.712Z,4.43
2022-11-01T09:52:19.688Z,3.55
2022-11-01T09:54:48.071Z,2.83
2022-11-01T09:57:40.614Z,3.17
2022-11-01T10:00:14.452Z,2.65
2022-11-01T10:03:00.295Z,3.60
2022-11-01T10:05:41.961Z,2.78
2022-11-01T10:08:36.128Z,2.95
2022-11-01T10:11:29.342Z,2.57
2022-11-01T10:14:19.289Z,3.30
2022-11-01T10:17:00.589Z,2.50
2022-11-01T10:19:33.207Z,3.05
2022-11-01T10:22:12.625Z,2.53
2022-11-01T10:24:52.474Z,2.80
2022-11-01T10:27:53.065Z,2.80
2022-11-01T10:30:20.443Z,3.42
2022-11-01T10:33:02.656Z,2.65
2022-11-01T10:35:41.779Z,2.70
2022-11-01T10:38:28.053Z,2.42
2022-11-01T10:41:19.628Z,2.35
2022-11-01T10:44:03.124Z,2.85
2022-11-01T10:46:37.304Z,2.92
2022-11-01T10:49:12.483Z,2.85
2022-11-01T10:51:42.316Z,2.80
2022-11-01T10:54:17.816Z,2.40
2022-11-01T10:56:48.962Z,2.40
2022-11-01T10:59:23.825Z,3.28
2022-11-01T11:01:53.115Z,3.00
2022-11-01T11:04:24.112Z,3.00
2022-11-01T11:06:51.967Z,2.53
2022-11-01T11:09:34.911Z,2.55
2022-11-01T11:12:16.201Z,2.78
2022-11-01T11:14:45.641Z,2.03
2022-11-01T11:17:25.308Z,2.70
2022-11-01T11:19:53.585Z,2.85
2022-11-01T11:22:22.433Z,2.63
2022-11-01T11:24:50.690Z,2.45
2022-11-01T11:27:25.894Z,2.65
2022-11-01T11:30:07.674Z,3.83
2022-11-01T11:32:39.409Z,2.42
2022-11-01T11:35:16.884Z,2.78
2022-11-01T11:38:14.372Z,3.17
2022-11-01T11:40:41.280Z,2.70
2022-11-01T11:43:23.364Z,2.70
2022-11-01T11:46:14.108Z,2.60
2022-11-01T11:48:48.020Z,2.65
2022-11-01T11:53:41.817Z,2.90
2022-11-01T11:56:11.777Z,2.72
2022-11-01T11:58:48.642Z,2.65
2022-11-01T12:01:21.764Z,3.17
2022-11-01T12:03:55.305Z,2.60
2022-11-01T12:06:28.707Z,2.70
2022-11-01T12:08:59.640Z,2.83
2022-11-01T12:11:40.192Z,2.78
2022-11-01T12:14:24.749Z,3.00
2022-11-01T12:16:51.731Z,2.60
2022-11-01T12:19:25.799Z,2.70
2022-11-01T12:21:54.461Z,2.95
2022-11-01T12:24:47.326Z,3.47
2022-11-01T12:27:20.229Z,3.30
2022-11-01T12:29:51.072Z,2.60
2022-11-01T12:32:33.822Z,3.20
2022-11-01T12:35:04.638Z,2.90
2022-11-01T12:37:47.772Z,3.28
2022-11-01T12:40:29.983Z,3.70
2022-11-01T12:43:20.092Z,3.05
2022-11-01T12:45:56.313Z,2.55
2022-11-01T12:48:29.670Z,2.25
2022-11-01T12:51:12.180Z,3.05
2022-11-01T12:53:43.053Z,3.05
2022-11-01T12:56:10.632Z,3.20
2022-11-01T12:58:37.833Z,2.50
2022-11-01T13:01:16.104Z,2.40
2022-11-01T13:03:57.942Z,2.67
2022-11-01T13:06:56.836Z,2.60
2022-11-01T13:09:47.830Z,2.45
2022-11-01T13:12:17.868Z,2.83
2022-11-01T13:15:00.140Z,2.78
2022-11-01T13:17:55.085Z,3.05
2022-11-01T13:20:48.496Z,3.42
2022-11-01T13:23:36.731Z,3.08
2022-11-01T13:26:24.820Z,2.55
2022-11-01T13:29:03.890Z,2.85
2022-11-01T13:31:35.506Z,3.30
2022-11-01T13:34:27.889Z,2.63
2022-11-01T13:37:20.349Z,2.35
2022-11-01T13:40:11.968Z,2.78
2022-11-01T13:42:43.985Z,2.63
2022-11-01T13:45:26.598Z,3.55
2022-11-01T13:48:15.252Z,2.20
2022-11-01T13:51:04.099Z,2.90
2022-11-01T13:53:40.909Z,2.63
2022-11-01T13:56:23.838Z,2.63
2022-11-01T13:58:50.957Z,2.33
2022-11-01T14:01:38.062Z,2.38
2022-11-01T14:04:14.288Z,2.67
2022-11-01T14:07:05.351Z,3.08
2022-11-01T14:09:32.687Z,2.53
2022-11-01T14:12:05.572Z,2.40
2022-11-01T14:14:32.582Z,2.75
2022-11-01T14:17:21.019Z,2.20
2022-11-01T14:19:58.644Z,3.05
2022-11-01T14:22:33.133Z,2.40
2022-11-01T14:25:24.257Z,3.03
2022-11-01T14:28:10.477Z,4.03
2022-11-01T14:30:43.342Z,3.33
2022-11-01T14:33:15.408Z,2.22
2022-11-01T14:35:50.036Z,2.45
2022-11-01T14:38:21.724Z,2.30
2022-11-01T14:40:51.470Z,2.92
2022-11-01T14:43:43.058Z,2.92
2022-11-01T14:46:16.151Z,2.55
2022-11-01T14:48:43.036Z,2.53
2022-11-01T14:51:32.856Z,3.78
2022-11-01T14:54:40.570Z,2.70
2022-11-01T14:57:21.673Z,3.45
2022-11-01T14:59:48.653Z,3.28
2022-11-01T15:02:16.309Z,2.47
2022-11-01T15:04:45.872Z,2.30
2022-11-01T15:07:27.834Z,2.65
2022-11-01T15:10:00.579Z,3.10
2022-11-01T15:12:33.588Z,3.05
2022-11-01T15:15:01.478Z,2.50
2022-11-01T15:17:34.345Z,2.38
2022-11-01T15:20:09.625Z,2.90
2022-11-01T15:22:36.711Z,2.47
2022-11-01T15:25:06.391Z,2.55
2022-11-01T15:27:43.507Z,2.35
2022-11-01T15:30:26.972Z,2.45
2022-11-01T15:33:20.680Z,2.97
2022-11-01T15:35:55.567Z,2.37
2022-11-01T15:38:23.579Z,2.72
2022-11-01T15:40:51.086Z,2.35
2022-11-01T15:43:20.714Z,3.00
2022-11-01T15:45:56.534Z,2.83
2022-11-01T15:48:30.778Z,2.40
2022-11-01T15:51:04.459Z,3.17
2022-11-01T15:53:34.018Z,2.65
2022-11-01T15:56:15.863Z,2.63
2022-11-01T15:58:48.064Z,2.97
2022-11-01T16:01:20.399Z,2.60
2022-11-01T16:03:55.683Z,2.97
2022-11-01T16:06:34.420Z,3.00
2022-11-01T16:09:05.262Z,2.60
2022-11-01T16:11:33.674Z,2.53
2022-11-01T16:14:03.893Z,2.40
2022-11-01T16:17:07.527Z,2.88
2022-11-01T16:19:39.920Z,3.15
2022-11-01T16:22:35.269Z,2.78
2022-11-01T16:25:24.397Z,2.75
2022-11-01T16:28:04.205Z,2.30
2022-11-01T16:30:46.316Z,2.58
2022-11-01T16:33:20.859Z,2.83
2022-11-01T16:35:53.419Z,2.70
2022-11-01T16:38:25.866Z,2.80
2022-11-01T16:40:55.959Z,2.95
2022-11-01T16:43:24.379Z,2.85
2022-11-01T16:45:51.755Z,2.70
2022-11-01T16:48:26.317Z,2.88
2022-11-01T16:50:58.075Z,2.83
2022-11-01T16:53:26.632Z,2.67
2022-11-01T16:59:22.587Z,2.85
2022-11-01T17:01:50.782Z,2.53
2022-11-01T17:04:19.400Z,2.63
2022-11-01T17:06:46.394Z,3.47
2022-11-01T17:09:15.054Z,3.40
2022-11-01T17:11:47.829Z,3.42
2022-11-01T17:14:15.093Z,2.97
2022-11-01T17:16:43.580Z,3.15
2022-11-01T17:19:21.482Z,2.63
2022-11-01T17:21:50.702Z,2.85
2022-11-01T17:24:21.432Z,2.72
2022-11-01T17:26:49.759Z,2.83
2022-11-01T17:29:16.633Z,3.53
2022-11-01T17:31:43.701Z,2.50
2022-11-01T17:34:10.637Z,2.75
2022-11-01T17:36:41.256Z,2.45
2022-11-01T17:39:10.898Z,2.22
2022-11-01T17:41:38.104Z,3.13
2022-11-01T17:44:05.486Z,2.88
2022-11-01T17:46:32.456Z,2.83
2022-11-01T17:48:59.458Z,3.17
2022-11-01T17:51:26.322Z,3.70
2022-11-01T17:53:56.693Z,2.85
2022-11-01T17:56:24.281Z,2.95
2022-11-01T17:58:53.631Z,2.92
2022-11-01T18:01:21.838Z,1.98
2022-11-01T18:03:49.404Z,2.45
2022-11-01T18:06:16.731Z,2.67
2022-11-01T18:08:47.325Z,2.78
2022-11-01T18:11:48.146Z,2.58
2022-11-01T18:14:50.197Z,2.58
2022-11-01T18:17:49.083Z,2.42
2022-11-01T18:20:49.741Z,2.42
2022-11-01T18:23:20.509Z,3.13
2022-11-01T18:25:50.273Z,2.78
2022-11-01T18:28:24.060Z,3.05
2022-11-01T18:31:12.641Z,2.25
2022-11-01T18:33:48.660Z,2.20
2022-11-01T18:36:34.163Z,3.35
2022-11-01T18:39:06.549Z,2.28
2022-11-01T18:41:33.480Z,4.55
2022-11-01T18:44:00.844Z,2.95
2022-11-01T18:46:37.330Z,2.60
2022-11-01T18:49:10.454Z,3.08
2022-11-01T18:51:38.885Z,2.80
2022-11-01T18:54:08.486Z,3.05
2022-11-01T18:56:40.284Z,2.83
2022-11-01T18:59:16.585Z,2.20
2022-11-01T19:01:44.028Z,2.67
2022-11-01T19:04:25.157Z,2.70
2022-11-01T19:06:59.165Z,3.75
2022-11-01T19:09:30.101Z,3.42
2022-11-01T19:12:26.891Z,3.20
2022-11-01T19:15:30.857Z,3.03
2022-11-01T19:18:19.947Z,2.60
2022-11-01T19:20:58.046Z,3.15
2022-11-01T19:23:31.585Z,2.70
2022-11-01T19:25:59.158Z,2.38
2022-11-01T19:28:37.559Z,2.47
2022-11-01T19:31:27.381Z,3.53
2022-11-01T19:33:58.186Z,2.88
2022-11-01T19:39:22.891Z,2.92
2022-11-01T19:41:51.242Z,2.92
2022-11-01T19:44:21.933Z,2.78
2022-11-01T19:46:52.234Z,2.25
2022-11-01T19:49:26.550Z,2.90
2022-11-01T19:52:08.303Z,2.70
2022-11-01T19:54:38.064Z,3.80
2022-11-01T19:57:26.164Z,2.72
2022-11-01T19:59:53.849Z,2.85
2022-11-01T20:02:22.744Z,3.95
2022-11-01T20:04:56.422Z,4.40
2022-11-01T20:07:28.162Z,4.47
2022-11-01T20:09:58.786Z,3.50
2022-11-01T20:12:25.952Z,2.83
2022-11-01T20:14:52.885Z,2.60
2022-11-01T20:17:19.803Z,2.70
2022-11-01T20:19:46.642Z,2.97
2022-11-01T20:22:13.543Z,2.60
2022-11-01T20:24:40.645Z,3.13
2022-11-01T20:27:07.640Z,2.25
2022-11-01T20:29:34.519Z,2.40
2022-11-01T20:32:01.467Z,2.40
2022-11-01T20:34:28.834Z,2.40
2022-11-01T20:37:26.931Z,2.70
2022-11-01T20:39:42.761Z,2.72
2022-11-01T20:42:09.617Z,2.42
2022-11-01T20:44:36.538Z,2.88
2022-11-01T20:47:03.432Z,3.03
2022-11-01T20:49:30.368Z,2.38
2022-11-01T20:52:03.827Z,3.00
2022-11-01T20:54:41.377Z,2.80
2022-11-01T20:57:15.690Z,2.30
2022-11-01T20:59:52.220Z,3.17
2022-11-01T21:02:19.416Z,2.75
2022-11-01T21:04:46.849Z,2.50
2022-11-01T21:07:14.602Z,3.38
2022-11-01T21:09:46.546Z,2.50
2022-11-01T21:12:29.365Z,2.20
2022-11-01T21:14:58.549Z,2.22
2022-11-01T21:17:25.457Z,2.40
2022-11-01T21:19:53.933Z,2.83
2022-11-01T21:22:21.488Z,2.45
2022-11-01T21:24:49.830Z,2.38
2022-11-01T21:27:27.049Z,2.50
2022-11-01T21:30:12.902Z,2.78
2022-11-01T21:32:44.126Z,2.40
2022-11-01T21:35:21.294Z,2.40
2022-11-01T21:37:52.198Z,2.08
2022-11-01T21:40:29.605Z,2.05
2022-11-01T21:42:57.728Z,2.17
2022-11-01T21:45:32.692Z,1.88
2022-11-01T21:48:04.061Z,2.83
2022-11-01T21:50:31.252Z,2.53
2022-11-01T21:52:58.106Z,2.95
2022-11-01T21:55:25.080Z,2.05
2022-11-01T21:57:51.948Z,2.00
2022-11-01T22:00:18.956Z,2.25
2022-11-01T22:02:45.951Z,2.00
2022-11-01T22:05:13.044Z,2.20
2022-11-01T22:07:39.920Z,2.00
2022-11-01T22:10:07.290Z,1.77
2022-11-01T22:12:34.156Z,2.13
2022-11-01T22:15:01.260Z,1.95
2022-11-01T22:17:28.157Z,1.58
2022-11-01T22:19:55.074Z,1.67
2022-11-01T22:22:22.019Z,1.67
2022-11-01T22:24:49.338Z,1.55
2022-11-01T22:27:16.210Z,1.58
2022-11-01T22:29:43.107Z,1.80
2022-11-01T22:32:09.997Z,1.40
2022-11-01T22:34:36.944Z,1.95
2022-11-01T22:37:13.652Z,1.50
2022-11-01T22:39:41.400Z,1.55
2022-11-01T22:42:13.271Z,1.85
2022-11-01T22:44:44.170Z,1.65
2022-11-01T22:47:24.482Z,1.60
2022-11-01T22:49:56.992Z,1.83
2022-11-01T22:52:29.709Z,1.60
2022-11-01T22:55:14.344Z,1.88
2022-11-01T22:57:50.538Z,1.60
2022-11-01T23:00:28.300Z,1.42
2022-11-01T23:03:18.800Z,1.58
2022-11-01T23:05:47.541Z,1.25
2022-11-01T23:08:20.112Z,1.40
2022-11-01T23:10:49.955Z,1.67
2022-11-01T23:13:45.167Z,1.40
2022-11-01T23:16:25.771Z,1.92
2022-11-01T23:18:54.243Z,2.35
2022-11-01T23:21:22.369Z,1.70
2022-11-01T23:23:49.733Z,2.05
2022-11-01T23:26:18.812Z,1.90
2022-11-01T23:28:49.348Z,1.77
2022-11-01T23:31:16.891Z,2.38
2022-11-01T23:33:48.621Z,2.20
2022-11-01T23:36:18.708Z,2.30
2022-11-01T23:41:32.616Z,2.75
2022-11-01T23:44:02.468Z,2.53
2022-11-01T23:46:29.824Z,2.03
2022-11-01T23:49:10.111Z,2.60
2022-11-01T23:51:37.371Z,2.10
2022-11-01T23:54:06.649Z,2.67
2022-11-01T23:56:33.712Z,3.08
2022-11-01T23:59:04.250Z,3.40
